Time;durP1;ratioP1;P1;durP2;ratioP2;P2;SDS_P1;SDS_P2;PMS_P1;PMS_P2;Temp;Humidity;BMP_temperature;BMP_pressure;BME280_temperature;BME280_humidity;BME280_pressure;Samples;Min_cycle;Max_cycle;Signal;HPM_P1;HPM_P2
2021/05/20 00:00:43;;;;;;;2.03;0.98;;;;;;;3.26;94.57;93381.63;2100190;28;20036;-85
2021/05/20 00:01:44;;;;;;;1.48;0.70;;;;;;;3.24;94.44;93385.72;2105136;28;20079;-85
2021/05/20 00:02:45;;;;;;;1.98;1.00;;;;;;;3.23;94.04;93378.94;2108422;28;20035;-86
2021/05/20 00:03:46;;;;;;;1.30;0.90;;;;;;;3.17;94.34;93373.22;2109589;28;20040;-86
2021/05/20 00:04:47;;;;;;;0.93;0.80;;;;;;;3.31;93.55;93374.50;2100531;28;20181;-86
2021/05/20 00:05:48;;;;;;;0.90;0.77;;;;;;;3.27;93.86;93374.44;2096846;28;20436;-86
2021/05/20 00:06:49;;;;;;;0.95;0.88;;;;;;;3.15;93.84;93377.34;2096421;28;20036;-85
2021/05/20 00:07:50;;;;;;;2.17;1.08;;;;;;;3.18;94.51;93379.25;2101351;28;20112;-86
2021/05/20 00:08:50;;;;;;;1.25;0.80;;;;;;;3.15;94.35;93380.72;2095546;28;20028;-85
2021/05/20 00:09:51;;;;;;;2.67;1.17;;;;;;;3.07;95.23;93376.50;2104891;28;20389;-85
2021/05/20 00:10:52;;;;;;;4.28;0.90;;;;;;;3.01;95.28;93380.59;2116355;27;20050;-86
2021/05/20 00:11:53;;;;;;;2.53;1.15;;;;;;;3.04;95.38;93377.25;2108227;28;20520;-86
2021/05/20 00:12:54;;;;;;;1.83;1.40;;;;;;;3.07;95.70;93387.06;2113302;28;20035;-85
2021/05/20 00:13:54;;;;;;;2.63;0.95;;;;;;;3.10;95.42;93377.66;2104522;28;20024;-86
2021/05/20 00:14:55;;;;;;;1.98;1.00;;;;;;;3.14;95.53;93386.38;2104372;28;20097;-85
2021/05/20 00:15:56;;;;;;;0.80;0.75;;;;;;;3.21;94.57;93383.84;2109159;28;20023;-85
2021/05/20 00:16:56;;;;;;;0.98;0.90;;;;;;;3.19;94.63;93386.06;2108733;28;20230;-85
2021/05/20 00:17:57;;;;;;;1.52;1.05;;;;;;;3.25;93.73;93389.91;2109039;28;20019;-85
2021/05/20 00:18:58;;;;;;;1.95;0.90;;;;;;;3.19;93.87;93389.47;2103315;28;20099;-87
2021/05/20 00:19:59;;;;;;;2.40;0.93;;;;;;;3.15;94.28;93388.66;2091888;28;20567;-86
2021/05/20 00:20:59;;;;;;;1.52;1.10;;;;;;;3.14;95.14;93386.38;2100529;27;20546;-85
2021/05/20 00:22:01;;;;;;;2.33;0.90;;;;;;;3.11;95.61;93395.03;2100592;28;20044;-86
2021/05/20 00:23:02;;;;;;;2.00;0.90;;;;;;;3.12;95.31;93391.28;2091565;28;20052;-85
2021/05/20 00:24:03;;;;;;;4.38;1.60;;;;;;;3.13;96.26;93390.16;2096042;28;20575;-86
2021/05/20 00:25:04;;;;;;;4.28;1.00;;;;;;;3.22;95.98;93388.75;2104836;28;20020;-86
2021/05/20 00:26:05;;;;;;;1.33;0.73;;;;;;;3.22;96.04;93385.34;2104689;28;20569;-85
2021/05/20 00:27:06;;;;;;;1.67;0.80;;;;;;;3.25;96.09;93382.75;2096801;28;20032;-86
2021/05/20 00:28:06;;;;;;;2.08;0.80;;;;;;;3.25;95.85;93393.31;2101493;28;20024;-85
2021/05/20 00:29:07;;;;;;;0.80;0.73;;;;;;;3.22;95.69;93394.03;2100211;28;20198;-86
2021/05/20 00:30:10;;;;;;;1.23;0.70;;;;;;;3.27;95.87;93391.06;2105315;28;20028;-85
2021/05/20 00:31:12;;;;;;;3.72;0.80;;;;;;;3.33;95.69;93394.13;2110771;27;20028;-85
2021/05/20 00:32:13;;;;;;;1.50;1.00;;;;;;;3.32;95.42;93392.59;2102759;28;20047;-85
2021/05/20 00:33:13;;;;;;;0.80;0.65;;;;;;;3.31;95.90;93393.72;2102592;28;20016;-85
2021/05/20 00:34:14;;;;;;;3.80;1.05;;;;;;;3.38;96.47;93385.09;2109510;28;20028;-85
2021/05/20 00:35:15;;;;;;;1.75;0.90;;;;;;;3.46;96.02;93400.66;2109013;28;20032;-85
2021/05/20 00:36:15;;;;;;;2.00;1.00;;;;;;;3.47;95.93;93390.88;2109507;28;20028;-86
2021/05/20 00:37:17;;;;;;;1.50;0.82;;;;;;;3.37;96.66;93396.81;2096262;28;20103;-85
2021/05/20 00:38:17;;;;;;;3.08;1.00;;;;;;;3.41;97.13;93394.97;2108714;28;20106;-86
2021/05/20 00:39:18;;;;;;;2.65;0.80;;;;;;;3.36;96.94;93395.28;2108305;28;20027;-86
2021/05/20 00:40:19;;;;;;;3.42;1.05;;;;;;;3.37;98.05;93400.19;2104596;28;20062;-85
2021/05/20 00:41:21;;;;;;;2.72;1.00;;;;;;;3.35;98.02;93397.19;2091433;28;20112;-86
2021/05/20 00:42:22;;;;;;;2.45;0.85;;;;;;;3.42;98.73;93402.50;2100502;28;20668;-86
2021/05/20 00:43:22;;;;;;;1.42;0.80;;;;;;;3.45;99.04;93396.50;2099678;28;20108;-87
2021/05/20 00:44:23;;;;;;;2.00;0.95;;;;;;;3.41;98.92;93402.88;2108245;28;20393;-85
2021/05/20 00:45:24;;;;;;;0.70;0.70;;;;;;;3.42;98.44;93397.22;2117854;27;20137;-85
2021/05/20 00:46:25;;;;;;;2.05;0.98;;;;;;;3.57;98.34;93394.75;2118388;27;20369;-87
2021/05/20 00:47:29;;;;;;;2.92;0.90;;;;;;;3.52;99.63;93391.31;2109798;28;20073;-86
2021/05/20 00:48:30;;;;;;;0.85;0.75;;;;;;;3.61;99.73;93398.19;2102727;28;20077;-87
2021/05/20 00:49:31;;;;;;;2.42;0.93;;;;;;;3.53;99.36;93398.09;2092890;28;20067;-86
2021/05/20 00:50:31;;;;;;;1.75;1.00;;;;;;;3.61;99.79;93395.53;2104216;28;20023;-86
2021/05/20 00:51:33;;;;;;;1.45;0.90;;;;;;;3.71;99.71;93394.84;2112737;28;20041;-86
2021/05/20 00:52:35;;;;;;;0.93;0.82;;;;;;;3.60;100.00;93400.06;2109325;28;20582;-86
2021/05/20 00:53:36;;;;;;;2.78;1.02;;;;;;;3.57;100.00;93400.78;2100543;28;20379;-85
2021/05/20 00:54:36;;;;;;;2.85;1.00;;;;;;;3.75;100.00;93398.28;2107316;28;20028;-85
2021/05/20 00:55:38;;;;;;;1.52;1.00;;;;;;;3.75;100.00;93396.41;2116942;27;20034;-86
2021/05/20 00:56:41;;;;;;;1.10;0.90;;;;;;;3.73;100.00;93393.38;2100289;28;20335;-86
2021/05/20 00:57:42;;;;;;;3.13;0.90;;;;;;;3.75;100.00;93393.75;2103692;28;20024;-86
2021/05/20 00:58:44;;;;;;;2.22;0.90;;;;;;;3.78;100.00;93394.94;2107761;28;20142;-87
2021/05/20 00:59:47;;;;;;;3.10;1.00;;;;;;;3.75;100.00;93393.00;2109615;27;20020;-86
2021/05/20 01:00:54;;;;;;;1.88;1.10;;;;;;;3.77;99.71;93390.75;2108910;28;20498;-85
2021/05/20 01:01:54;;;;;;;0.88;0.80;;;;;;;3.72;100.00;93401.66;2110822;27;20015;-86
2021/05/20 01:02:55;;;;;;;0.77;0.70;;;;;;;3.72;100.00;93399.00;2112389;28;20028;-85
2021/05/20 01:03:56;;;;;;;1.90;0.90;;;;;;;3.68;99.93;93401.63;2109107;28;20035;-86
2021/05/20 01:04:57;;;;;;;0.98;0.80;;;;;;;3.69;100.00;93392.59;2103156;28;20062;-86
2021/05/20 01:05:58;;;;;;;0.85;0.80;;;;;;;3.63;100.00;93393.28;2104451;28;20027;-85
2021/05/20 01:06:58;;;;;;;2.38;0.70;;;;;;;3.61;100.00;93395.53;2100838;28;20435;-87
2021/05/20 01:07:59;;;;;;;1.50;1.05;;;;;;;3.64;100.00;93400.06;2095909;28;20111;-85
2021/05/20 01:09:00;;;;;;;2.50;1.10;;;;;;;3.65;100.00;93402.38;2104162;28;20507;-86
2021/05/20 01:10:02;;;;;;;0.95;0.80;;;;;;;3.73;99.78;93401.31;2116435;27;20031;-86
2021/05/20 01:11:03;;;;;;;2.53;0.98;;;;;;;3.75;98.35;93401.69;2116653;27;20472;-85
2021/05/20 01:12:07;;;;;;;2.80;0.80;;;;;;;3.71;98.08;93394.84;2110259;28;20047;-87
2021/05/20 01:13:08;;;;;;;3.75;1.05;;;;;;;3.60;98.14;93396.63;2099952;28;20056;-86
2021/05/20 01:14:11;;;;;;;1.33;0.80;;;;;;;3.57;98.63;93400.78;2095999;28;20530;-84
2021/05/20 01:15:23;;;;;;;3.17;0.93;;;;;;;3.62;99.43;93391.75;2091578;28;20071;-86
2021/05/20 01:16:24;;;;;;;2.50;0.82;;;;;;;3.53;99.71;93392.81;2100631;28;20031;-86
2021/05/20 01:17:25;;;;;;;0.80;0.80;;;;;;;3.63;99.60;93395.91;2099457;28;20031;-86
2021/05/20 01:18:28;;;;;;;1.23;0.80;;;;;;;3.52;98.64;93399.22;2107210;28;20126;-87
2021/05/20 01:19:29;;;;;;;1.70;0.82;;;;;;;3.57;98.54;93390.22;2107967;27;20031;-86
2021/05/20 01:20:33;;;;;;;3.20;0.90;;;;;;;3.48;98.43;93397.69;2111954;28;20176;-85
2021/05/20 01:21:34;;;;;;;1.20;0.85;;;;;;;3.52;98.23;93396.59;2120996;27;20031;-85
2021/05/20 01:22:35;;;;;;;4.53;1.00;;;;;;;3.53;98.68;93400.75;2116529;27;20535;-86
2021/05/20 01:23:35;;;;;;;3.08;0.90;;;;;;;3.62;98.13;93400.44;2099879;28;20028;-85
2021/05/20 01:24:37;;;;;;;1.38;1.08;;;;;;;3.54;98.22;93407.53;2091269;28;20032;-85
2021/05/20 01:25:40;;;;;;;0.80;0.80;;;;;;;3.53;98.90;93402.63;2107871;28;20019;-86
2021/05/20 01:26:41;;;;;;;1.42;0.90;;;;;;;3.52;99.07;93409.03;2107715;28;20024;-85
2021/05/20 01:27:45;;;;;;;1.58;1.08;;;;;;;3.49;99.91;93409.75;2109243;28;20092;-85
2021/05/20 01:28:45;;;;;;;1.48;1.00;;;;;;;3.54;99.91;93399.63;2099930;28;20035;-86
2021/05/20 01:29:46;;;;;;;1.20;0.90;;;;;;;3.51;100.00;93402.22;2091419;28;20206;-86
2021/05/20 01:30:49;;;;;;;2.22;0.95;;;;;;;3.48;100.00;93398.44;2103897;28;20134;-87
2021/05/20 01:31:50;;;;;;;1.15;1.05;;;;;;;3.52;100.00;93406.41;2109385;28;20024;-86
2021/05/20 01:32:50;;;;;;;3.08;0.88;;;;;;;3.52;100.00;93395.84;2112185;28;20027;-86
2021/05/20 01:33:51;;;;;;;1.80;0.90;;;;;;;3.49;99.94;93401.84;2108003;28;20062;-86
2021/05/20 01:34:58;;;;;;;1.95;1.10;;;;;;;3.50;100.00;93406.75;2113814;27;20027;-85
2021/05/20 01:35:59;;;;;;;1.15;0.90;;;;;;;3.57;100.00;93408.72;2109126;28;20028;-86
2021/05/20 01:37:06;;;;;;;2.40;1.20;;;;;;;3.54;100.00;93407.53;2104160;28;20023;-85
2021/05/20 01:38:53;;;;;;;1.35;1.20;;;;;;;3.62;100.00;93402.34;2106073;27;20428;-86
2021/05/20 01:39:37;;;;;;;1.85;1.20;;;;;;;3.58;100.00;93414.75;2106260;27;20039;-85
2021/05/20 01:40:38;;;;;;;1.10;1.00;;;;;;;3.55;100.00;93413.59;2100256;28;20481;-86
2021/05/20 01:41:38;;;;;;;1.10;1.00;;;;;;;3.62;100.00;93411.03;2108031;28;20066;-85
2021/05/20 01:42:39;;;;;;;1.02;0.93;;;;;;;3.61;100.00;93409.50;2116885;27;20038;-86
2021/05/20 01:43:41;;;;;;;1.27;1.17;;;;;;;3.62;100.00;93410.25;2107809;28;20031;-85
2021/05/20 01:44:42;;;;;;;1.48;1.17;;;;;;;3.58;100.00;93399.66;2117095;27;20111;-85
2021/05/20 01:45:48;;;;;;;1.95;1.40;;;;;;;3.56;100.00;93409.06;2117002;27;20028;-85
2021/05/20 01:46:49;;;;;;;5.93;1.60;;;;;;;3.64;100.00;93408.00;2107574;28;20114;-86
2021/05/20 01:47:49;;;;;;;2.33;1.20;;;;;;;3.69;100.00;93408.44;2108060;28;20031;-86
2021/05/20 01:48:53;;;;;;;2.15;1.30;;;;;;;3.62;100.00;93411.03;2108095;28;20060;-85
2021/05/20 01:49:55;;;;;;;2.17;1.23;;;;;;;3.69;100.00;93416.38;2096228;28;20026;-86
2021/05/20 01:51:20;;;;;;;5.72;1.33;;;;;;;3.69;100.00;93411.09;2103711;28;20036;-86
2021/05/20 01:52:21;;;;;;;2.38;1.10;;;;;;;3.68;100.00;93408.78;2106823;27;20648;-85
2021/05/20 01:53:22;;;;;;;3.33;1.50;;;;;;;3.68;100.00;93411.44;2108428;28;20047;-85
2021/05/20 01:54:23;;;;;;;2.70;1.20;;;;;;;3.60;100.00;93415.13;2099173;28;20020;-85
2021/05/20 01:55:23;;;;;;;1.38;1.27;;;;;;;3.70;100.00;93414.50;2095655;28;20588;-86
2021/05/20 01:56:24;;;;;;;1.65;1.23;;;;;;;3.73;100.00;93417.16;2095978;28;20028;-85
2021/05/20 01:57:25;;;;;;;2.00;1.30;;;;;;;3.75;100.00;93414.16;2112906;28;20583;-85
2021/05/20 01:58:27;;;;;;;6.60;1.30;;;;;;;3.76;100.00;93413.78;2108027;28;20024;-85
2021/05/20 01:59:28;;;;;;;1.50;1.10;;;;;;;3.75;100.00;93414.91;2108424;28;20103;-86
2021/05/20 02:00:29;;;;;;;2.13;1.20;;;;;;;3.81;100.00;93417.97;2108966;28;20181;-86
2021/05/20 02:01:30;;;;;;;4.40;2.10;;;;;;;3.85;100.00;93415.38;2091669;28;20159;-85
2021/05/20 02:02:30;;;;;;;2.83;1.35;;;;;;;3.85;100.00;93412.72;2098910;28;20054;-85
2021/05/20 02:03:32;;;;;;;3.25;1.40;;;;;;;3.84;100.00;93408.56;2103549;28;20028;-85
2021/05/20 02:04:33;;;;;;;2.03;1.30;;;;;;;3.79;100.00;93410.41;2108648;28;20027;-86
2021/05/20 02:05:33;;;;;;;1.58;1.40;;;;;;;3.83;100.00;93405.16;2109560;27;20044;-86
2021/05/20 02:06:34;;;;;;;1.50;1.40;;;;;;;3.84;100.00;93406.69;2100223;28;20035;-87
2021/05/20 02:07:35;;;;;;;1.73;1.55;;;;;;;3.82;100.00;93416.88;2083158;28;20120;-85
2021/05/20 02:08:38;;;;;;;2.60;1.38;;;;;;;3.84;100.00;93409.31;2092104;28;20044;-85
2021/05/20 02:09:38;;;;;;;2.50;1.13;;;;;;;3.90;100.00;93417.66;2099115;28;20115;-85
2021/05/20 02:10:40;;;;;;;2.38;1.10;;;;;;;3.89;100.00;93413.50;2091953;28;20024;-85
2021/05/20 02:11:40;;;;;;;3.03;1.52;;;;;;;3.89;100.00;93410.88;2095766;28;20178;-86
2021/05/20 02:12:41;;;;;;;2.20;1.63;;;;;;;3.90;100.00;93409.72;2103745;28;20020;-85
2021/05/20 02:13:42;;;;;;;3.33;1.50;;;;;;;3.92;100.00;93412.78;2103824;28;20030;-85
2021/05/20 02:14:42;;;;;;;1.95;1.55;;;;;;;4.01;100.00;93411.34;2095627;28;20039;-85
2021/05/20 02:15:43;;;;;;;1.92;1.38;;;;;;;3.87;100.00;93413.88;2091622;28;20393;-85
2021/05/20 02:16:44;;;;;;;3.80;1.52;;;;;;;3.91;100.00;93403.34;2100041;28;20256;-85
2021/05/20 02:17:45;;;;;;;3.10;1.48;;;;;;;3.94;100.00;93408.63;2091641;28;20040;-86
2021/05/20 02:18:45;;;;;;;1.55;1.30;;;;;;;3.90;100.00;93407.09;2099624;28;20043;-86
2021/05/20 02:19:46;;;;;;;2.78;1.30;;;;;;;3.85;100.00;93407.44;2089941;28;20067;-85
2021/05/20 02:20:47;;;;;;;1.48;1.33;;;;;;;3.89;100.00;93414.28;2092302;28;20112;-85
2021/05/20 02:21:47;;;;;;;4.22;1.80;;;;;;;3.99;100.00;93405.66;2100733;28;20025;-85
2021/05/20 02:22:49;;;;;;;3.03;1.55;;;;;;;3.93;100.00;93417.69;2090857;28;20024;-85
2021/05/20 02:23:50;;;;;;;3.45;1.27;;;;;;;3.95;100.00;93406.75;2091636;28;20492;-84
2021/05/20 02:24:51;;;;;;;2.38;1.40;;;;;;;3.96;100.00;93408.28;2091330;28;20044;-86
2021/05/20 02:25:52;;;;;;;4.15;1.45;;;;;;;3.93;100.00;93404.47;2096095;28;20074;-86
2021/05/20 02:26:52;;;;;;;4.07;1.63;;;;;;;3.88;100.00;93415.41;2088823;28;20753;-85
2021/05/20 02:27:53;;;;;;;2.60;1.30;;;;;;;3.93;100.00;93414.31;2095700;28;20028;-86
2021/05/20 02:28:54;;;;;;;3.20;1.50;;;;;;;4.00;100.00;93409.84;2103891;28;20040;-86
2021/05/20 02:29:54;;;;;;;3.08;1.38;;;;;;;3.97;100.00;93412.44;2100183;28;20032;-85
2021/05/20 02:30:55;;;;;;;4.65;1.50;;;;;;;3.90;100.00;93409.72;2099402;28;20515;-86
2021/05/20 02:31:56;;;;;;;4.18;1.40;;;;;;;3.96;100.00;93421.50;2099275;28;20035;-85
2021/05/20 02:32:57;;;;;;;1.40;1.30;;;;;;;3.98;100.00;93414.72;2099906;28;20027;-86
2021/05/20 02:33:58;;;;;;;4.03;1.38;;;;;;;3.97;100.00;93409.81;2092267;28;20028;-85
2021/05/20 02:34:59;;;;;;;1.50;1.33;;;;;;;4.04;100.00;93415.91;2092635;28;20066;-86
2021/05/20 02:35:59;;;;;;;2.50;1.30;;;;;;;4.02;100.00;93418.16;2092662;28;20021;-86
2021/05/20 02:37:00;;;;;;;2.97;1.55;;;;;;;3.94;100.00;93406.00;2092334;28;20028;-86
2021/05/20 02:38:01;;;;;;;2.72;1.60;;;;;;;4.03;100.00;93410.97;2091237;28;20374;-85
2021/05/20 02:39:03;;;;;;;1.60;1.40;;;;;;;4.01;100.00;93408.69;2100671;28;20408;-86
2021/05/20 02:40:06;;;;;;;1.50;1.38;;;;;;;4.11;100.00;93414.44;2090859;28;20148;-86
2021/05/20 02:41:06;;;;;;;2.70;1.30;;;;;;;4.08;100.00;93404.59;2090427;28;20081;-85
2021/05/20 02:42:07;;;;;;;1.65;1.55;;;;;;;4.11;100.00;93407.25;2098958;28;20474;-86
2021/05/20 02:43:08;;;;;;;2.35;1.33;;;;;;;4.06;100.00;93409.50;2098845;28;20032;-85
2021/05/20 02:44:09;;;;;;;1.67;1.35;;;;;;;4.12;100.00;93413.31;2091576;28;20473;-85
2021/05/20 02:45:18;;;;;;;2.25;1.30;;;;;;;4.03;100.00;93409.09;2084865;28;20025;-86
2021/05/20 02:46:19;;;;;;;1.50;1.40;;;;;;;4.16;100.00;93411.44;2088878;28;20017;-85
2021/05/20 02:47:20;;;;;;;3.22;1.20;;;;;;;4.21;100.00;93411.09;2083907;28;20112;-86
2021/05/20 02:48:21;;;;;;;3.88;1.30;;;;;;;4.26;100.00;93416.81;2091489;28;20556;-86
2021/05/20 02:49:22;;;;;;;8.63;6.93;;;;;;;4.35;100.00;93413.09;2102285;28;20526;-86
2021/05/20 02:50:24;;;;;;;6.53;5.88;;;;;;;4.17;100.00;93411.09;2095735;28;20085;-86
2021/05/20 02:51:25;;;;;;;5.35;4.85;;;;;;;4.21;100.00;93411.09;2095297;28;20032;-86
2021/05/20 02:52:26;;;;;;;4.57;3.80;;;;;;;4.14;100.00;93414.47;2093690;28;20036;-85
2021/05/20 02:53:26;;;;;;;3.42;2.55;;;;;;;4.03;100.00;93411.72;2091109;28;20108;-85
2021/05/20 02:54:27;;;;;;;2.20;1.90;;;;;;;4.08;100.00;93421.22;2100333;28;20425;-86
2021/05/20 02:55:28;;;;;;;2.20;1.70;;;;;;;4.16;100.00;93414.84;2091412;28;20074;-86
2021/05/20 02:56:28;;;;;;;3.45;1.48;;;;;;;4.11;100.00;93419.72;2085600;28;20481;-85
2021/05/20 02:57:30;;;;;;;5.35;1.50;;;;;;;4.12;100.00;93410.66;2084244;28;20429;-86
2021/05/20 02:58:31;;;;;;;1.83;1.40;;;;;;;4.11;100.00;93414.44;2082314;28;20482;-86
2021/05/20 02:59:32;;;;;;;1.60;1.17;;;;;;;4.10;100.00;93416.31;2093218;28;20024;-85
2021/05/20 03:00:35;;;;;;;1.63;1.48;;;;;;;4.07;100.00;93413.66;2093541;28;20031;-86
2021/05/20 03:01:42;;;;;;;3.15;1.48;;;;;;;4.07;100.00;93417.06;2085527;28;20441;-87
2021/05/20 03:02:43;;;;;;;1.65;1.55;;;;;;;4.18;100.00;93419.78;2093500;28;20360;-86
2021/05/20 03:03:43;;;;;;;1.52;1.38;;;;;;;4.14;100.00;93417.13;2099428;28;20028;-85
2021/05/20 03:04:44;;;;;;;1.40;1.30;;;;;;;4.09;100.00;93414.81;2093085;28;20037;-86
2021/05/20 03:05:45;;;;;;;1.73;1.20;;;;;;;4.16;100.00;93416.75;2099118;28;20092;-86
2021/05/20 03:06:46;;;;;;;1.48;1.30;;;;;;;4.14;100.00;93419.00;2100789;28;20077;-87
2021/05/20 03:07:47;;;;;;;1.90;1.70;;;;;;;4.10;100.00;93420.88;2109187;28;20533;-86
2021/05/20 03:08:48;;;;;;;1.40;1.25;;;;;;;4.08;100.00;93417.81;2102522;28;20673;-86
2021/05/20 03:09:49;;;;;;;2.72;1.27;;;;;;;4.06;100.00;93414.78;2093634;28;20031;-86
2021/05/20 03:10:50;;;;;;;1.60;1.27;;;;;;;4.09;100.00;93417.47;2099919;28;20032;-85
2021/05/20 03:11:52;;;;;;;2.45;1.30;;;;;;;4.10;100.00;93415.56;2110311;28;20023;-86
2021/05/20 03:12:54;;;;;;;1.92;1.35;;;;;;;4.07;100.00;93414.41;2110176;28;20072;-86
2021/05/20 03:13:55;;;;;;;3.17;1.60;;;;;;;4.03;100.00;93413.63;2101129;28;20033;-85
2021/05/20 03:14:56;;;;;;;2.20;1.27;;;;;;;4.06;100.00;93418.19;2109710;28;20503;-86
2021/05/20 03:15:56;;;;;;;2.35;1.40;;;;;;;4.09;100.00;93414.06;2116210;27;20050;-86
2021/05/20 03:16:57;;;;;;;1.70;1.10;;;;;;;4.12;100.00;93413.31;2109465;28;20032;-86
2021/05/20 03:17:58;;;;;;;1.40;1.20;;;;;;;4.15;100.00;93421.28;2101656;28;20069;-86
2021/05/20 03:19:00;;;;;;;5.72;1.35;;;;;;;4.12;100.00;93418.59;2092395;28;20071;-86
2021/05/20 03:20:03;;;;;;;2.90;1.10;;;;;;;4.18;100.00;93417.16;2102273;28;20182;-86
2021/05/20 03:21:03;;;;;;;1.67;1.23;;;;;;;4.19;100.00;93423.94;2104629;28;20073;-86
2021/05/20 03:22:06;;;;;;;1.35;1.10;;;;;;;4.25;100.00;93417.94;2109099;28;20092;-86
2021/05/20 03:23:07;;;;;;;2.00;1.20;;;;;;;4.29;100.00;93415.31;2104239;28;20592;-87
2021/05/20 03:24:08;;;;;;;1.67;1.20;;;;;;;4.23;100.00;93411.50;2102506;28;20024;-86
2021/05/20 03:25:10;;;;;;;2.70;1.02;;;;;;;4.24;100.00;93418.31;2109605;28;20182;-86
2021/05/20 03:26:10;;;;;;;3.50;1.15;;;;;;;4.19;100.00;93416.78;2101156;28;20051;-86
2021/05/20 03:27:11;;;;;;;1.65;1.10;;;;;;;4.15;100.00;93418.63;2091812;28;20032;-86
2021/05/20 03:28:12;;;;;;;3.00;1.10;;;;;;;4.18;100.00;93417.16;2100309;28;20487;-86
2021/05/20 03:29:13;;;;;;;1.42;1.13;;;;;;;4.22;100.00;93420.56;2108474;27;20187;-86
2021/05/20 03:30:14;;;;;;;1.40;1.00;;;;;;;4.18;100.00;93420.53;2109262;28;20020;-86
2021/05/20 03:31:15;;;;;;;1.70;1.30;;;;;;;4.18;100.00;93425.84;2109618;28;20074;-86
2021/05/20 03:32:16;;;;;;;1.20;1.10;;;;;;;4.20;100.00;93428.88;2101540;28;20031;-86
2021/05/20 03:33:16;;;;;;;0.93;0.88;;;;;;;4.15;100.00;93421.28;2109445;28;20028;-86
2021/05/20 03:34:17;;;;;;;1.92;1.08;;;;;;;4.20;100.00;93422.81;2113831;27;20031;-87
2021/05/20 03:35:18;;;;;;;1.75;1.27;;;;;;;4.12;100.00;93427.28;2105660;28;20466;-86
2021/05/20 03:36:19;;;;;;;1.77;0.90;;;;;;;4.15;100.00;93431.09;2100809;28;20059;-86
2021/05/20 03:37:20;;;;;;;1.30;1.20;;;;;;;4.09;100.00;93425.41;2110313;28;20474;-87
2021/05/20 03:38:20;;;;;;;1.63;1.00;;;;;;;4.18;100.00;93425.84;2100942;28;20024;-87
2021/05/20 03:39:21;;;;;;;1.80;1.10;;;;;;;4.21;100.00;93432.25;2095019;28;20020;-87
2021/05/20 03:40:22;;;;;;;1.25;0.88;;;;;;;4.27;100.00;93428.16;2104489;28;20058;-86
2021/05/20 03:41:23;;;;;;;1.00;0.90;;;;;;;4.17;100.00;93432.25;2100967;28;20029;-86
2021/05/20 03:42:23;;;;;;;0.93;0.88;;;;;;;4.23;100.00;93427.38;2104907;28;20525;-86
2021/05/20 03:43:24;;;;;;;1.70;1.00;;;;;;;4.19;100.00;93432.63;2107978;28;20028;-86
2021/05/20 03:44:25;;;;;;;1.67;1.20;;;;;;;4.20;100.00;93428.09;2105472;28;20048;-88
2021/05/20 03:45:26;;;;;;;1.35;1.15;;;;;;;4.23;100.00;93430.78;2104709;28;20500;-86
2021/05/20 03:46:27;;;;;;;2.17;1.08;;;;;;;4.27;100.00;93433.47;2113036;28;20038;-86
2021/05/20 03:47:27;;;;;;;1.50;1.40;;;;;;;4.17;100.00;93428.84;2108757;28;20032;-86
2021/05/20 03:48:29;;;;;;;3.28;1.40;;;;;;;4.23;100.00;93427.38;2108794;28;20015;-87
2021/05/20 03:49:30;;;;;;;2.50;1.20;;;;;;;4.28;100.00;93433.09;2117015;27;20172;-86
2021/05/20 03:50:30;;;;;;;2.13;1.30;;;;;;;4.26;100.00;93424.78;2117168;27;20438;-85
2021/05/20 03:51:31;;;;;;;3.70;0.90;;;;;;;4.15;100.00;93433.75;2116851;27;20027;-86
2021/05/20 03:52:32;;;;;;;1.17;1.00;;;;;;;4.24;100.00;93439.47;2109499;28;20023;-86
2021/05/20 03:53:35;;;;;;;1.88;0.82;;;;;;;4.26;100.00;93434.59;2096217;28;20035;-86
2021/05/20 03:54:40;;;;;;;1.27;1.17;;;;;;;4.24;100.00;93431.53;2109609;28;20522;-86
2021/05/20 03:55:41;;;;;;;1.45;1.20;;;;;;;4.25;100.00;93433.06;2109276;28;20035;-86
2021/05/20 03:56:41;;;;;;;2.47;1.13;;;;;;;4.21;100.00;93434.91;2099604;28;20562;-85
2021/05/20 03:57:42;;;;;;;3.70;1.80;;;;;;;4.26;100.00;93432.69;2092152;28;20103;-86
2021/05/20 03:58:43;;;;;;;2.80;1.67;;;;;;;4.27;100.00;93433.47;2099312;28;20091;-87
2021/05/20 03:59:43;;;;;;;7.05;2.97;;;;;;;4.24;100.00;93437.59;2109958;28;20353;-86
2021/05/20 04:00:44;;;;;;;13.95;4.40;;;;;;;4.23;100.00;93436.06;2108700;28;20028;-86
2021/05/20 04:01:45;;;;;;;10.98;4.35;;;;;;;4.25;100.00;93438.34;2104933;28;20032;-87
2021/05/20 04:02:48;;;;;;;9.05;3.45;;;;;;;4.25;100.00;93433.06;2109760;28;20059;-85
2021/05/20 04:03:49;;;;;;;5.47;3.10;;;;;;;4.31;100.00;93441.44;2118521;27;20057;-87
2021/05/20 04:04:50;;;;;;;8.30;6.53;;;;;;;4.35;100.00;93439.56;2117315;27;20097;-86
2021/05/20 04:05:52;;;;;;;4.57;2.17;;;;;;;4.43;100.00;93447.16;2103765;28;20052;-86
2021/05/20 04:06:53;;;;;;;7.93;2.10;;;;;;;4.42;100.00;93440.34;2112928;27;20027;-86
2021/05/20 04:07:53;;;;;;;4.38;1.70;;;;;;;4.39;100.00;93443.75;2116978;27;20073;-85
2021/05/20 04:08:54;;;;;;;2.30;1.33;;;;;;;4.31;100.00;93444.84;2107996;28;20028;-86
2021/05/20 04:09:55;;;;;;;1.67;1.50;;;;;;;4.34;100.00;93435.38;2109990;28;20042;-86
2021/05/20 04:10:56;;;;;;;2.45;1.50;;;;;;;4.23;100.00;93440.59;2117090;27;20530;-86
2021/05/20 04:11:57;;;;;;;1.40;1.30;;;;;;;4.32;100.00;93443.69;2108363;28;20034;-86
2021/05/20 04:12:57;;;;;;;1.33;1.23;;;;;;;4.31;100.00;93449.38;2104717;28;20038;-85
2021/05/20 04:13:58;;;;;;;2.90;1.60;;;;;;;4.25;100.00;93444.38;2101157;28;20036;-86
2021/05/20 04:14:59;;;;;;;1.63;1.40;;;;;;;4.28;100.00;93446.31;2116934;27;20059;-86
2021/05/20 04:16:00;;;;;;;3.20;1.70;;;;;;;4.40;100.00;93449.81;2113562;27;20031;-86
2021/05/20 04:17:01;;;;;;;2.40;2.20;;;;;;;4.48;100.00;93446.09;2096805;28;20031;-86
2021/05/20 04:18:02;;;;;;;3.80;2.22;;;;;;;4.34;100.00;93449.38;2104443;28;20028;-86
2021/05/20 04:19:04;;;;;;;2.33;2.13;;;;;;;4.24;100.00;93442.13;2112371;28;20027;-85
2021/05/20 04:20:05;;;;;;;2.78;1.70;;;;;;;4.30;100.00;93443.28;2103140;28;20556;-85
2021/05/20 04:21:06;;;;;;;2.72;1.80;;;;;;;4.33;100.00;93444.47;2104023;28;20502;-86
2021/05/20 04:22:06;;;;;;;2.40;1.42;;;;;;;4.30;100.00;93443.28;2109174;28;20028;-87
2021/05/20 04:23:07;;;;;;;2.13;1.80;;;;;;;4.40;100.00;93442.63;2101207;28;20055;-86
2021/05/20 04:24:08;;;;;;;15.18;10.90;;;;;;;4.39;100.00;93445.63;2100996;28;20058;-87
2021/05/20 04:25:09;;;;;;;9.95;7.07;;;;;;;4.43;100.00;93447.16;2100184;28;20060;-86
2021/05/20 04:26:10;;;;;;;13.23;10.35;;;;;;;4.43;100.00;93446.41;2092098;28;20112;-86
2021/05/20 04:27:11;;;;;;;21.15;16.55;;;;;;;4.37;100.00;93445.25;2094766;28;20028;-86
2021/05/20 04:28:13;;;;;;;19.23;15.45;;;;;;;4.38;100.00;93447.50;2093550;28;20143;-85
2021/05/20 04:29:14;;;;;;;14.57;12.10;;;;;;;4.38;100.00;93452.81;2100303;27;20028;-86
2021/05/20 04:30:15;;;;;;;12.95;11.75;;;;;;;4.42;100.00;93444.88;2101816;28;20028;-86
2021/05/20 04:31:17;;;;;;;9.35;8.55;;;;;;;4.45;100.00;93442.28;2096455;28;20028;-86
2021/05/20 04:32:17;;;;;;;8.90;7.95;;;;;;;4.50;100.00;93452.50;2111087;28;20033;-86
2021/05/20 04:33:18;;;;;;;8.52;7.82;;;;;;;4.51;100.00;93456.66;2112298;28;20027;-87
2021/05/20 04:34:19;;;;;;;6.50;5.90;;;;;;;4.58;100.00;93445.38;2112892;28;20027;-86
2021/05/20 04:35:20;;;;;;;5.38;4.88;;;;;;;4.64;100.00;93451.84;2108295;28;20023;-87
2021/05/20 04:36:20;;;;;;;7.60;6.57;;;;;;;4.69;100.00;93453.38;2104998;28;20032;-87
2021/05/20 04:37:21;;;;;;;5.60;4.75;;;;;;;4.62;100.00;93443.53;2113405;28;20024;-86
2021/05/20 04:38:22;;;;;;;4.40;3.97;;;;;;;4.72;100.00;93442.81;2110556;28;20063;-86
2021/05/20 04:39:22;;;;;;;1.77;1.67;;;;;;;4.66;100.00;93440.91;2103226;28;20647;-87
2021/05/20 04:40:23;;;;;;;2.05;1.40;;;;;;;4.66;100.00;93443.53;2104771;28;20024;-86
2021/05/20 04:41:24;;;;;;;2.08;1.40;;;;;;;4.72;100.00;93436.75;2096524;28;20789;-87
2021/05/20 04:42:25;;;;;;;1.42;1.33;;;;;;;4.76;100.00;93438.28;2109538;28;20024;-86
2021/05/20 04:43:26;;;;;;;4.28;1.50;;;;;;;4.85;100.00;93445.16;2108280;28;20440;-87
2021/05/20 04:44:27;;;;;;;1.80;1.60;;;;;;;4.88;100.00;93442.53;2108349;28;20015;-86
2021/05/20 04:45:28;;;;;;;1.73;1.50;;;;;;;4.82;100.00;93440.59;2108294;28;20501;-86
2021/05/20 04:46:28;;;;;;;2.35;2.00;;;;;;;4.92;100.00;93439.91;2117637;27;20022;-87
2021/05/20 04:47:29;;;;;;;2.30;1.20;;;;;;;4.93;100.00;93438.75;2109248;28;20071;-87
2021/05/20 04:48:31;;;;;;;2.50;2.30;;;;;;;4.85;100.00;93439.84;2104488;28;20097;-86
2021/05/20 04:49:32;;;;;;;2.65;2.10;;;;;;;4.89;100.00;93449.34;2094808;28;20643;-87